Time;durP1;ratioP1;P1;durP2;ratioP2;P2;SDS_P1;SDS_P2;PMS_P1;PMS_P2;Temp;Humidity;BMP_temperature;BMP_pressure;BME280_temperature;BME280_humidity;BME280_pressure;Samples;Min_cycle;Max_cycle;Signal;HPM_P1;HPM_P2
2023/03/05 00:01:09;;;;;;;1999.90;999.90;;;;;;;3.22;100.00;100589.66;4985226;28;20058;-77
2023/03/05 00:03:35;;;;;;;1999.90;999.90;;;;;;;3.22;100.00;100594.88;4984908;28;20105;-77
2023/03/05 00:06:00;;;;;;;1999.90;999.90;;;;;;;3.22;100.00;100585.38;4985165;28;20034;-77
2023/03/05 00:08:27;;;;;;;1999.90;999.90;;;;;;;3.30;100.00;100588.13;4984558;28;20045;-77
2023/03/05 00:11:08;;;;;;;1999.90;999.90;;;;;;;3.23;100.00;100599.28;4984837;28;20069;-77
2023/03/05 00:13:34;;;;;;;1999.90;999.90;;;;;;;3.21;100.00;100591.41;4983637;28;20034;-77
2023/03/05 00:16:03;;;;;;;1999.90;999.90;;;;;;;3.26;99.81;100592.41;4982798;28;20046;-77
2023/03/05 00:18:28;;;;;;;1999.90;999.90;;;;;;;3.26;98.54;100587.19;4984969;28;20050;-77
2023/03/05 00:20:53;;;;;;;1999.90;999.90;;;;;;;3.34;97.58;100582.16;4985541;28;20062;-77
2023/03/05 00:23:19;;;;;;;1999.90;999.90;;;;;;;3.31;97.22;100583.81;4984935;28;20034;-76
2023/03/05 00:25:45;;;;;;;1999.90;999.90;;;;;;;3.26;96.83;100589.78;4984378;28;20070;-77
2023/03/05 00:28:11;;;;;;;1999.90;999.90;;;;;;;3.33;96.94;100588.22;4984750;28;20515;-77
2023/03/05 00:30:36;;;;;;;1999.90;999.90;;;;;;;3.27;97.29;100577.63;4984567;28;20046;-77
2023/03/05 00:33:01;;;;;;;1999.90;999.90;;;;;;;3.26;97.87;100568.03;4982978;28;20062;-77
2023/03/05 00:35:27;;;;;;;1999.90;999.90;;;;;;;3.33;97.51;100577.78;4984864;28;20069;-77
2023/03/05 00:37:52;;;;;;;1999.90;999.90;;;;;;;3.31;97.44;100579.47;4985729;28;20745;-77
2023/03/05 00:40:18;;;;;;;1999.90;999.90;;;;;;;3.26;98.20;100561.09;4982322;28;20092;-77
2023/03/05 00:42:43;;;;;;;1999.90;999.90;;;;;;;3.27;98.45;100560.28;4986163;28;20034;-77
2023/03/05 00:45:09;;;;;;;1999.90;999.90;;;;;;;3.36;98.87;100566.53;4990780;28;20044;-77
2023/03/05 00:47:35;;;;;;;23.77;22.67;;;;;;;3.20;97.04;100562.69;4981566;28;20034;-77
2023/03/05 00:50:01;;;;;;;25.45;24.25;;;;;;;3.21;97.04;100556.63;4985045;28;20038;-77
2023/03/05 00:52:27;;;;;;;49.35;47.05;;;;;;;3.17;94.46;100562.59;4983066;28;20041;-76
2023/03/05 00:54:52;;;;;;;48.67;46.45;;;;;;;3.07;92.70;100580.63;4986249;28;20497;-77
2023/03/05 00:57:18;;;;;;;21.65;20.65;;;;;;;3.03;92.00;100552.72;4993084;28;20088;-77
2023/03/05 00:59:43;;;;;;;16.95;16.15;;;;;;;3.04;92.61;100549.28;4989460;28;20042;-77
2023/03/05 01:02:09;;;;;;;15.27;14.52;;;;;;;3.08;91.43;100543.28;4979120;28;20033;-77
2023/03/05 01:04:35;;;;;;;14.50;13.80;;;;;;;3.02;91.18;100542.25;4985633;28;20039;-77
2023/03/05 01:07:00;;;;;;;13.68;13.00;;;;;;;3.10;90.85;100542.44;4992709;28;20109;-77
2023/03/05 01:09:26;;;;;;;11.52;10.93;;;;;;;3.06;89.99;100537.13;4989768;28;20579;-77
2023/03/05 01:11:51;;;;;;;7.55;7.15;;;;;;;3.03;89.81;100533.59;5000814;28;20436;-77
2023/03/05 01:14:18;;;;;;;6.20;5.80;;;;;;;2.99;90.39;100532.63;4990934;28;20409;-77
2023/03/05 01:16:43;;;;;;;5.13;4.82;;;;;;;3.02;91.39;100527.50;4985600;28;20026;-77
2023/03/05 01:19:09;;;;;;;4.55;4.25;;;;;;;3.01;92.57;100528.34;4981823;28;20037;-77
2023/03/05 01:21:35;;;;;;;4.25;3.95;;;;;;;3.06;93.31;100520.63;4990589;28;20105;-77
2023/03/05 01:24:01;;;;;;;4.05;3.78;;;;;;;3.00;94.10;100526.56;4989847;28;20485;-77
2023/03/05 01:26:27;;;;;;;3.90;3.60;;;;;;;2.93;94.21;100527.25;4974978;28;20081;-77
2023/03/05 01:28:52;;;;;;;4.75;4.45;;;;;;;2.97;94.47;100526.50;4983026;28;20050;-77
2023/03/05 01:31:18;;;;;;;5.32;5.03;;;;;;;2.93;94.09;100511.59;4991010;28;20046;-77
2023/03/05 01:33:45;;;;;;;30.73;29.13;;;;;;;2.87;92.96;100516.69;4982114;28;20043;-77
2023/03/05 01:36:15;;;;;;;5.72;5.43;;;;;;;2.88;92.23;100539.28;4982892;28;20118;-77
2023/03/05 01:38:42;;;;;;;5.18;4.88;;;;;;;2.87;92.25;100508.00;4984297;28;20042;-77
2023/03/05 01:41:08;;;;;;;6.82;6.43;;;;;;;2.87;90.35;100511.47;4982875;28;20514;-77
2023/03/05 01:43:33;;;;;;;3.42;3.22;;;;;;;2.78;91.04;100509.53;4983860;28;20037;-77
2023/03/05 01:46:24;;;;;;;3.10;2.90;;;;;;;2.79;89.79;100520.84;5000650;28;20043;-77
2023/03/05 01:48:55;;;;;;;3.00;2.80;;;;;;;2.72;87.77;100513.69;4982280;28;20053;-77
2023/03/05 01:51:25;;;;;;;4.47;4.18;;;;;;;2.74;87.24;100510.28;4989135;28;20034;-77
2023/03/05 01:53:52;;;;;;;3.22;3.05;;;;;;;2.69;87.17;100503.19;4978234;28;20093;-77
2023/03/05 01:56:17;;;;;;;1.50;1.40;;;;;;;2.66;86.85;100492.69;4985099;28;20493;-77
2023/03/05 01:58:43;;;;;;;1.17;1.13;;;;;;;2.57;85.45;100495.97;4981022;28;20054;-77
2023/03/05 02:01:09;;;;;;;1.60;1.50;;;;;;;2.58;84.33;100506.41;4984474;28;20101;-77
2023/03/05 02:03:35;;;;;;;0.80;0.80;;;;;;;2.59;84.37;100497.75;4989661;28;20058;-77
2023/03/05 02:06:01;;;;;;;0.47;0.47;;;;;;;2.52;85.00;100490.63;4976902;28;20047;-77
2023/03/05 02:08:26;;;;;;;0.40;0.40;;;;;;;2.51;84.24;100499.25;4983648;28;20138;-77
2023/03/05 02:10:55;;;;;;;0.40;0.40;;;;;;;2.48;84.40;100485.28;4982219;28;20046;-77
2023/03/05 02:13:24;;;;;;;0.30;0.30;;;;;;;2.48;83.56;100487.91;4982207;28;20046;-77
2023/03/05 02:15:52;;;;;;;0.28;0.28;;;;;;;2.46;82.62;100495.66;4985161;28;20101;-77
2023/03/05 02:18:19;;;;;;;0.20;0.20;;;;;;;2.41;83.48;100484.25;4991358;28;20038;-77
2023/03/05 02:20:47;;;;;;;0.20;0.20;;;;;;;2.42;83.62;100473.88;4981666;28;20038;-77
2023/03/05 02:23:13;;;;;;;0.20;0.20;;;;;;;2.38;83.10;100477.25;4984862;28;20082;-77
2023/03/05 02:25:38;;;;;;;0.17;0.17;;;;;;;2.43;82.67;100479.94;4991104;28;20095;-77
2023/03/05 02:28:18;;;;;;;0.20;0.20;;;;;;;2.40;81.47;100488.56;4981301;28;20074;-77
2023/03/05 02:30:44;;;;;;;0.10;0.10;;;;;;;2.35;82.33;100473.66;4982990;28;20035;-77
2023/03/05 02:33:09;;;;;;;0.10;0.10;;;;;;;2.31;82.87;100471.84;4987231;28;20551;-77
2023/03/05 02:35:35;;;;;;;0.10;0.10;;;;;;;2.29;82.45;100474.41;4987719;28;20037;-77
2023/03/05 02:38:01;;;;;;;0.10;0.10;;;;;;;2.23;82.04;100478.53;4997174;28;20109;-76
2023/03/05 02:40:26;;;;;;;0.10;0.10;;;;;;;2.25;82.17;100472.53;4995629;28;20137;-77
2023/03/05 02:42:52;;;;;;;0.10;0.10;;;;;;;2.23;81.57;100465.53;4988850;28;20074;-77
2023/03/05 02:45:18;;;;;;;0.10;0.10;;;;;;;2.21;82.21;100462.91;4990330;28;20035;-77
2023/03/05 02:47:43;;;;;;;0.10;0.10;;;;;;;2.18;82.79;100458.50;4988770;28;20054;-77
2023/03/05 02:50:10;;;;;;;3.10;2.97;;;;;;;2.12;83.29;100463.53;4988428;28;20030;-77
2023/03/05 02:52:37;;;;;;;115.30;109.85;;;;;;;2.12;83.01;100462.63;4987711;28;20034;-77
2023/03/05 02:55:05;;;;;;;36.05;34.30;;;;;;;2.09;82.86;100460.84;4994131;28;20085;-77
2023/03/05 02:57:30;;;;;;;20.55;19.55;;;;;;;2.06;83.57;100463.34;4986230;28;20030;-77
2023/03/05 02:59:56;;;;;;;7.82;7.43;;;;;;;2.02;82.90;100453.72;4997548;28;20496;-77
2023/03/05 03:02:21;;;;;;;10.45;9.93;;;;;;;2.02;82.61;100460.63;4982438;28;20046;-77
2023/03/05 03:04:47;;;;;;;27.73;26.40;;;;;;;1.98;82.84;100464.88;4993813;28;20130;-77
2023/03/05 03:07:13;;;;;;;53.95;51.50;;;;;;;2.03;81.94;100465.88;4991085;28;20026;-77
2023/03/05 03:09:39;;;;;;;56.97;54.35;;;;;;;2.00;82.69;100467.53;4987599;28;20047;-77
2023/03/05 03:12:06;;;;;;;166.00;157.07;;;;;;;2.08;82.00;100464.28;4997424;28;20089;-77
2023/03/05 03:14:38;;;;;;;40.80;38.95;;;;;;;2.03;81.21;100452.88;4990706;28;20038;-77
2023/03/05 03:17:29;;;;;;;32.70;31.20;;;;;;;2.09;81.19;100460.84;4989071;28;20063;-77
2023/03/05 03:19:55;;;;;;;35.53;33.88;;;;;;;2.06;80.61;100458.16;4985528;28;20497;-77
2023/03/05 03:22:20;;;;;;;36.83;35.13;;;;;;;2.09;81.00;100450.41;4989502;28;20069;-77
2023/03/05 03:24:46;;;;;;;32.40;30.90;;;;;;;2.05;80.56;100455.53;4989369;28;20030;-76
2023/03/05 03:27:11;;;;;;;30.75;29.30;;;;;;;2.09;81.17;100455.63;4988788;28;20497;-77
2023/03/05 03:29:37;;;;;;;27.58;26.27;;;;;;;2.07;81.13;100449.53;4989091;28;20064;-77
2023/03/05 03:32:03;;;;;;;29.30;27.92;;;;;;;2.12;80.97;100453.13;4989220;28;20113;-77
2023/03/05 03:34:28;;;;;;;28.95;27.60;;;;;;;2.07;80.78;100459.94;4987337;28;20038;-77
2023/03/05 03:36:54;;;;;;;26.67;25.48;;;;;;;2.07;80.53;100444.31;4988578;28;20031;-77
2023/03/05 03:39:20;;;;;;;33.15;31.65;;;;;;;2.10;80.45;100433.97;4989050;28;20413;-77
2023/03/05 03:41:48;;;;;;;1999.90;999.90;;;;;;;2.15;80.63;100434.09;4988450;28;20041;-77
2023/03/05 03:44:16;;;;;;;1999.90;999.90;;;;;;;2.11;80.18;100422.72;4987439;28;20113;-77
2023/03/05 03:46:43;;;;;;;1999.90;999.90;;;;;;;2.13;79.61;100426.25;4984473;28;20046;-77
2023/03/05 03:49:16;;;;;;;1999.90;999.90;;;;;;;2.18;80.14;100432.44;4987036;28;20026;-76
2023/03/05 03:51:41;;;;;;;1999.90;999.90;;;;;;;2.14;79.58;100445.34;4981580;28;20069;-77
2023/03/05 03:54:06;;;;;;;1999.90;999.90;;;;;;;2.13;79.94;100435.78;4983959;28;20038;-77
2023/03/05 03:56:32;;;;;;;1999.90;999.90;;;;;;;2.13;79.48;100425.38;4986592;28;20060;-76
2023/03/05 03:58:57;;;;;;;1999.90;999.90;;;;;;;2.11;80.06;100425.31;4984338;28;20050;-77
2023/03/05 04:01:22;;;;;;;1999.90;999.90;;;;;;;2.13;79.86;100422.75;4986587;28;20034;-77
2023/03/05 04:03:48;;;;;;;1999.90;999.90;;;;;;;2.17;80.30;100425.50;4984631;28;20122;-76
2023/03/05 04:06:13;;;;;;;1999.90;999.90;;;;;;;2.17;80.33;100421.97;4984765;28;20049;-77
2023/03/05 04:08:39;;;;;;;1999.90;999.90;;;;;;;2.17;80.15;100408.97;4986258;28;20030;-76
2023/03/05 04:11:04;;;;;;;1999.90;999.90;;;;;;;2.24;79.66;100426.50;4984236;28;20475;-77
2023/03/05 04:13:30;;;;;;;1999.90;999.90;;;;;;;2.17;79.40;100415.06;4984985;28;20101;-77
2023/03/05 04:15:55;;;;;;;1999.90;999.90;;;;;;;2.23;79.30;100411.75;4981605;28;20563;-77
2023/03/05 04:18:21;;;;;;;1999.90;999.90;;;;;;;2.22;79.06;100412.56;4985052;28;20400;-77
2023/03/05 04:20:47;;;;;;;1999.90;999.90;;;;;;;2.17;79.84;100415.06;4984513;28;20062;-77
2023/03/05 04:23:13;;;;;;;1999.90;999.90;;;;;;;2.19;80.23;100396.88;4985267;28;20113;-77
2023/03/05 04:25:38;;;;;;;1999.90;999.90;;;;;;;2.10;82.10;100407.94;4986372;28;20035;-77
2023/03/05 04:28:04;;;;;;;1999.90;999.90;;;;;;;2.12;83.35;100406.25;4986381;28;20041;-77
2023/03/05 04:30:30;;;;;;;1999.90;999.90;;;;;;;2.06;85.17;100407.81;4984965;28;20035;-77
2023/03/05 04:32:56;;;;;;;1999.90;999.90;;;;;;;2.00;87.02;100395.53;4967193;28;20045;-77
2023/03/05 04:35:21;;;;;;;1999.90;999.90;;;;;;;1.98;88.14;100397.19;4985361;28;20031;-77
2023/03/05 04:37:46;;;;;;;1999.90;999.90;;;;;;;1.94;90.29;100388.44;4983260;28;20035;-77
2023/03/05 04:40:12;;;;;;;1999.90;999.90;;;;;;;1.96;90.76;100398.88;4983972;28;20069;-77
2023/03/05 04:42:37;;;;;;;1999.90;999.90;;;;;;;1.98;91.92;100381.59;4985725;28;20042;-77
2023/03/05 04:45:04;;;;;;;1999.90;999.90;;;;;;;1.93;93.14;100383.19;5021793;23;20566;-75
2023/03/05 04:47:29;;;;;;;1999.90;999.90;;;;;;;1.92;94.02;100378.81;5002334;28;20165;-75
2023/03/05 04:49:54;;;;;;;1999.90;999.90;;;;;;;1.92;95.02;100369.28;4997141;28;20112;-75
2023/03/05 04:52:19;;;;;;;1999.90;999.90;;;;;;;1.89;96.11;100365.75;5002135;28;20082;-75
2023/03/05 04:54:45;;;;;;;1999.90;999.90;;;;;;;1.86;96.51;100366.53;4999546;28;20037;-75
2023/03/05 04:57:10;;;;;;;1999.90;999.90;;;;;;;1.80;98.01;100365.47;4962826;28;20047;-75
2023/03/05 04:59:37;;;;;;;1999.90;999.90;;;;;;;1.73;98.75;100367.94;4971707;28;20037;-75
2023/03/05 05:02:03;;;;;;;1999.90;999.90;;;;;;;1.71;99.30;100363.53;4968000;28;20069;-75
2023/03/05 05:04:29;;;;;;;1999.90;999.90;;;;;;;1.71;99.43;100363.53;4967457;28;20397;-75
2023/03/05 05:06:56;;;;;;;1999.90;999.90;;;;;;;1.64;100.00;100369.41;4962318;28;20028;-75
2023/03/05 05:09:21;;;;;;;1999.90;999.90;;;;;;;1.62;100.00;100371.06;4961974;28;20035;-75
2023/03/05 05:11:46;;;;;;;1999.90;999.90;;;;;;;1.64;99.70;100366.78;4965767;28;20540;-76
2023/03/05 05:14:12;;;;;;;1999.90;999.90;;;;;;;1.67;100.00;100369.47;4966740;28;20042;-76
2023/03/05 05:16:37;;;;;;;1999.90;999.90;;;;;;;1.66;99.54;100376.41;4965461;28;20126;-76
2023/03/05 05:19:02;;;;;;;1999.90;999.90;;;;;;;1.66;99.10;100373.81;4967373;28;20046;-76
2023/03/05 05:21:28;;;;;;;1999.90;999.90;;;;;;;1.69;98.93;100370.41;4962788;28;20043;-76
2023/03/05 05:23:53;;;;;;;1999.90;999.90;;;;;;;1.69;99.80;100368.69;4965001;28;20030;-76
2023/03/05 05:26:19;;;;;;;1999.90;999.90;;;;;;;1.68;99.68;100366.94;4967491;28;20083;-76
2023/03/05 05:28:44;;;;;;;1999.90;999.90;;;;;;;1.68;100.00;100364.31;4964713;28;20047;-76
2023/03/05 05:31:12;;;;;;;1999.90;999.90;;;;;;;1.72;100.00;100368.75;4962457;28;20047;-76
2023/03/05 05:33:38;;;;;;;1999.90;999.90;;;;;;;1.72;100.00;100367.88;4964231;28;20043;-76
2023/03/05 05:36:05;;;;;;;1999.90;999.90;;;;;;;1.67;100.00;100372.06;4969685;28;20058;-76
2023/03/05 05:38:31;;;;;;;1999.90;999.90;;;;;;;1.72;100.00;100373.09;4963135;28;20061;-76
2023/03/05 05:41:07;;;;;;;1999.90;999.90;;;;;;;1.75;100.00;100376.63;4963310;28;20113;-76
2023/03/05 05:43:34;;;;;;;1999.90;999.90;;;;;;;1.77;100.00;100365.41;4965043;28;20030;-76
2023/03/05 05:46:02;;;;;;;1999.90;999.90;;;;;;;1.74;100.00;100367.06;4964442;28;20049;-76
2023/03/05 05:48:32;;;;;;;1999.90;999.90;;;;;;;1.76;100.00;100380.16;4961570;28;20258;-76
2023/03/05 05:50:58;;;;;;;1999.90;999.90;;;;;;;1.80;100.00;100381.09;4963951;28;20035;-76
2023/03/05 05:53:24;;;;;;;1999.90;999.90;;;;;;;1.76;100.00;100385.34;4965296;28;20543;-76
2023/03/05 05:55:50;;;;;;;1999.90;999.90;;;;;;;1.80;100.00;100373.28;4966576;28;20038;-76
2023/03/05 05:58:15;;;;;;;1999.90;999.90;;;;;;;1.81;100.00;100382.84;4962576;28;20043;-76
2023/03/05 06:00:41;;;;;;;1999.90;999.90;;;;;;;1.86;100.00;100379.56;4963441;28;20034;-76
2023/03/05 06:03:06;;;;;;;1999.90;999.90;;;;;;;1.88;100.00;100366.56;4962698;28;20131;-77
2023/03/05 06:05:32;;;;;;;1999.90;999.90;;;;;;;1.94;100.00;100367.63;4967396;28;20405;-76
2023/03/05 06:07:57;;;;;;;1999.90;999.90;;;;;;;1.95;100.00;100379.78;4962745;28;20035;-76
2023/03/05 06:10:22;;;;;;;1999.90;999.90;;;;;;;2.00;100.00;100373.81;4966249;28;20034;-76
2023/03/05 06:12:48;;;;;;;1999.90;999.90;;;;;;;1.99;100.00;100380.72;4963214;28;20073;-76
2023/03/05 06:15:13;;;;;;;1999.90;999.90;;;;;;;2.04;100.00;100381.72;4970050;28;20045;-76
2023/03/05 06:17:38;;;;;;;1999.90;999.90;;;;;;;2.02;100.00;100378.22;4962826;28;20039;-76
2023/03/05 06:20:05;;;;;;;1999.90;999.90;;;;;;;2.10;99.82;100381.03;4962599;28;20049;-76
2023/03/05 06:22:31;;;;;;;1999.90;999.90;;;;;;;2.09;99.66;100380.13;4963227;28;20154;-76
2023/03/05 06:24:56;;;;;;;1999.90;999.90;;;;;;;2.12;99.96;100369.81;4972236;28;20113;-76
2023/03/05 06:27:21;;;;;;;1999.90;999.90;;;;;;;2.19;99.23;100397.75;4966586;28;20105;-76
2023/03/05 06:29:50;;;;;;;1999.90;999.90;;;;;;;2.18;98.82;100382.09;4962023;28;20042;-76
2023/03/05 06:32:15;;;;;;;1999.90;999.90;;;;;;;2.17;98.64;100373.41;4963862;28;20031;-76
2023/03/05 06:34:41;;;;;;;1999.90;999.90;;;;;;;2.21;98.92;100373.50;4969569;28;20044;-76
2023/03/05 06:37:06;;;;;;;1999.90;999.90;;;;;;;2.18;98.79;100390.78;4964941;28;20231;-76
2023/03/05 06:39:32;;;;;;;1999.90;999.90;;;;;;;2.15;100.00;100384.63;4961257;28;20452;-76
2023/03/05 06:41:57;;;;;;;1999.90;999.90;;;;;;;2.08;100.00;100385.31;4946963;28;20054;-76
2023/03/05 06:44:22;;;;;;;1999.90;999.90;;;;;;;2.05;100.00;100378.31;4966335;28;20039;-76
2023/03/05 06:46:48;;;;;;;1999.90;999.90;;;;;;;2.02;100.00;100385.13;4968055;28;20160;-76
2023/03/05 06:49:13;;;;;;;1999.90;999.90;;;;;;;1.93;100.00;100373.66;4964629;28;20034;-76
2023/03/05 06:51:39;;;;;;;1999.90;999.90;;;;;;;1.82;100.00;100380.31;4974476;28;20485;-76
2023/03/05 06:54:07;;;;;;;1999.90;999.90;;;;;;;1.82;100.00;100387.22;4960914;28;20502;-76
2023/03/05 06:56:37;;;;;;;1999.90;999.90;;;;;;;1.65;100.00;100382.47;4967811;28;20126;-77
2023/03/05 06:59:02;;;;;;;1999.90;999.90;;;;;;;1.61;100.00;100382.31;4966331;28;20034;-77
2023/03/05 07:01:28;;;;;;;1999.90;999.90;;;;;;;1.57;100.00;100381.34;4961957;28;20049;-77
2023/03/05 07:03:54;;;;;;;1999.90;999.90;;;;;;;1.59;100.00;100374.47;4964080;28;20066;-77
2023/03/05 07:06:21;;;;;;;1999.90;999.90;;;;;;;1.54;100.00;100368.25;4946265;28;20047;-77
2023/03/05 07:08:47;;;;;;;1999.90;999.90;;;;;;;1.52;100.00;100376.03;4963337;28;20035;-77
2023/03/05 07:11:16;;;;;;;1999.90;999.90;;;;;;;1.61;100.00;100375.41;4968105;28;20419;-78
2023/03/05 07:13:42;;;;;;;1999.90;999.90;;;;;;;1.65;100.00;100372.06;4963102;28;20136;-77
2023/03/05 07:16:13;;;;;;;1999.90;999.90;;;;;;;1.75;100.00;100365.34;4967278;28;20055;-77
2023/03/05 07:18:38;;;;;;;1999.90;999.90;;;;;;;1.80;100.00;100365.47;4965203;28;20489;-77
2023/03/05 07:21:05;;;;;;;1999.90;999.90;;;;;;;1.80;100.00;100357.69;4964850;28;20086;-77
2023/03/05 07:23:31;;;;;;;1999.90;999.90;;;;;;;1.93;100.00;100357.16;4971576;28;20047;-77
2023/03/05 07:26:00;;;;;;;1999.90;999.90;;;;;;;2.02;100.00;100359.09;4955542;28;20046;-77
2023/03/05 07:28:25;;;;;;;1999.90;999.90;;;;;;;2.06;100.00;100354.03;4965427;28;20027;-77
2023/03/05 07:30:59;;;;;;;1999.90;999.90;;;;;;;2.12;100.00;100354.19;4967534;28;20067;-77
2023/03/05 07:33:25;;;;;;;1999.90;999.90;;;;;;;2.19;100.00;100350.88;4950948;28;20042;-77
2023/03/05 07:35:50;;;;;;;1999.90;999.90;;;;;;;2.19;100.00;100356.09;4971262;28;20035;-77
2023/03/05 07:38:16;;;;;;;1999.90;999.90;;;;;;;2.17;100.00;100347.38;4966027;28;20515;-77
2023/03/05 07:40:41;;;;;;;28.08;26.77;;;;;;;2.30;100.00;100347.66;4948570;28;20569;-77
2023/03/05 07:43:06;;;;;;;31.98;30.52;;;;;;;2.29;100.00;100357.19;4967072;28;20038;-77
2023/03/05 07:45:33;;;;;;;30.55;29.15;;;;;;;2.38;100.00;100343.50;4955523;28;20042;-77
2023/03/05 07:47:59;;;;;;;28.27;26.98;;;;;;;2.42;100.00;100342.75;4965507;28;20027;-77
2023/03/05 07:50:24;;;;;;;22.90;21.83;;;;;;;2.47;100.00;100343.75;4965893;28;20077;-77
2023/03/05 07:52:49;;;;;;;18.23;17.33;;;;;;;2.52;100.00;100344.75;4965234;28;20045;-77
2023/03/05 07:55:15;;;;;;;14.85;14.15;;;;;;;2.59;100.00;100346.66;4969778;28;20153;-77
2023/03/05 07:57:40;;;;;;;14.60;13.90;;;;;;;2.70;100.00;100339.06;4966227;28;20121;-77
2023/03/05 08:00:06;;;;;;;13.40;12.70;;;;;;;2.85;100.00;100338.50;4964472;28;20090;-77
2023/03/05 08:02:36;;;;;;;12.98;12.35;;;;;;;2.89;100.00;100329.94;4967293;28;20057;-77
2023/03/05 08:05:02;;;;;;;12.30;11.70;;;;;;;2.83;100.00;100328.06;4973005;28;20104;-77
2023/03/05 08:07:27;;;;;;;12.95;12.35;;;;;;;2.77;100.00;100324.44;4968079;28;20090;-77
2023/03/05 08:09:53;;;;;;;13.88;13.18;;;;;;;2.88;100.00;100322.06;4946108;29;20039;-77
2023/03/05 08:12:18;;;;;;;14.75;14.05;;;;;;;2.98;100.00;100319.69;4950241;28;20074;-77
2023/03/05 08:14:43;;;;;;;16.60;15.80;;;;;;;3.02;100.00;100321.50;4970352;28;20069;-77
2023/03/05 08:17:08;;;;;;;13.35;12.55;;;;;;;3.07;100.00;100319.88;4969958;28;20078;-77
2023/03/05 08:19:34;;;;;;;21.05;20.02;;;;;;;2.98;100.00;100322.28;4963275;28;20159;-77
2023/03/05 08:21:59;;;;;;;23.35;22.13;;;;;;;2.84;100.00;100318.53;4967200;28;20034;-77
2023/03/05 08:24:28;;;;;;;23.85;22.63;;;;;;;2.97;100.00;100330.09;4955449;28;20043;-77
2023/03/05 08:26:55;;;;;;;13.10;12.35;;;;;;;2.86;100.00;100324.66;4953236;28;20038;-77
2023/03/05 08:29:20;;;;;;;7.70;7.20;;;;;;;2.97;100.00;100317.94;4946607;28;20038;-77
2023/03/05 08:31:46;;;;;;;13.63;12.82;;;;;;;3.02;100.00;100342.38;4965348;28;20046;-77
2023/03/05 08:34:11;;;;;;;8.50;8.00;;;;;;;2.94;100.00;100325.69;4964902;28;20121;-77
2023/03/05 08:36:37;;;;;;;54.53;51.17;;;;;;;2.83;100.00;100316.78;4967173;28;20039;-77
2023/03/05 08:39:05;;;;;;;8.15;7.65;;;;;;;2.70;100.00;100318.22;4968555;28;20071;-77
2023/03/05 08:41:30;;;;;;;6.45;6.05;;;;;;;2.63;100.00;100332.81;4947946;28;20035;-77
2023/03/05 08:43:55;;;;;;;17.90;17.00;;;;;;;2.61;100.00;100311.06;4965064;28;20039;-77
2023/03/05 08:46:21;;;;;;;5.60;5.20;;;;;;;2.66;100.00;100305.09;4971702;28;20037;-77
2023/03/05 08:48:46;;;;;;;5.38;5.07;;;;;;;2.77;100.00;100314.00;4969873;28;20042;-77
2023/03/05 08:51:14;;;;;;;5.20;4.90;;;;;;;2.82;100.00;100310.66;4965300;28;20114;-77
2023/03/05 08:53:41;;;;;;;24.33;23.08;;;;;;;2.88;100.00;100316.84;4965449;28;20039;-77
2023/03/05 08:56:07;;;;;;;13.02;12.32;;;;;;;2.79;100.00;100317.53;4974862;28;20218;-77
2023/03/05 08:58:32;;;;;;;9.85;9.35;;;;;;;2.92;100.00;100308.25;4968328;28;20118;-77
2023/03/05 09:00:57;;;;;;;9.77;9.27;;;;;;;3.08;100.00;100300.78;4967190;28;20524;-77
2023/03/05 09:03:23;;;;;;;21.38;20.27;;;;;;;3.02;100.00;100305.88;4963691;28;20524;-77
2023/03/05 09:05:48;;;;;;;7.20;6.78;;;;;;;3.16;100.00;100305.28;4966649;28;20445;-77
2023/03/05 09:08:14;;;;;;;7.03;6.63;;;;;;;3.26;100.00;100291.56;4963184;28;20042;-78
2023/03/05 09:10:43;;;;;;;8.05;7.55;;;;;;;3.39;100.00;100284.88;4968905;28;20073;-77
2023/03/05 09:13:09;;;;;;;4.82;4.45;;;;;;;3.62;100.00;100300.94;4962529;28;20031;-77
2023/03/05 09:15:35;;;;;;;5.22;4.90;;;;;;;3.61;100.00;100291.34;4970152;28;20110;-77
2023/03/05 09:18:00;;;;;;;3.40;3.20;;;;;;;3.44;100.00;100294.53;4965963;28;20457;-77
2023/03/05 09:20:26;;;;;;;4.05;3.75;;;;;;;3.23;100.00;100283.69;4949697;28;20053;-77
2023/03/05 09:22:51;;;;;;;3.63;3.42;;;;;;;3.11;100.00;100291.25;4962916;28;20035;-77
2023/03/05 09:25:17;;;;;;;4.00;3.70;;;;;;;2.90;100.00;100286.47;4970451;28;20043;-77
2023/03/05 09:27:42;;;;;;;4.57;4.28;;;;;;;2.77;100.00;100288.81;4962984;28;20442;-77
2023/03/05 09:30:09;;;;;;;3.00;2.80;;;;;;;2.76;100.00;100283.59;4965331;28;20050;-77
2023/03/05 09:32:35;;;;;;;3.25;3.05;;;;;;;2.82;100.00;100287.19;4969445;28;20030;-77
2023/03/05 09:35:00;;;;;;;3.20;3.00;;;;;;;2.80;100.00;100272.38;4970244;28;20049;-77
2023/03/05 09:37:26;;;;;;;4.13;3.83;;;;;;;2.78;100.00;100269.75;4965862;28;20034;-77
2023/03/05 09:39:51;;;;;;;4.32;4.03;;;;;;;2.76;100.00;100275.78;4950485;28;20525;-77
2023/03/05 09:42:27;;;;;;;3.08;2.88;;;;;;;2.64;100.00;100298.09;4966504;28;20035;-77
2023/03/05 09:45:04;;;;;;;4.28;3.97;;;;;;;2.30;100.00;100291.25;4972484;28;20177;-77
2023/03/05 09:47:41;;;;;;;6.05;5.65;;;;;;;1.83;100.00;100293.56;4974523;28;20035;-79
2023/03/05 09:50:06;;;;;;;3.67;3.38;;;;;;;1.74;100.00;100281.22;4959732;28;20046;-79
2023/03/05 09:52:44;;;;;;;3.63;3.33;;;;;;;1.97;100.00;100283.53;4982473;28;20034;-80
2023/03/05 09:55:23;;;;;;;3.20;3.00;;;;;;;2.21;100.00;100275.41;4980149;28;20053;-79
2023/03/05 09:57:54;;;;;;;223.50;204.10;;;;;;;2.37;100.00;100279.25;4937048;28;20042;-77
2023/03/05 10:01:03;;;;;;;1999.90;999.90;;;;;;;2.48;100.00;100279.50;4964869;28;20039;-76
2023/03/05 10:03:43;;;;;;;1999.90;999.90;;;;;;;2.62;100.00;100271.16;4872618;29;20048;-77
2023/03/05 10:06:24;;;;;;;1999.90;999.90;;;;;;;2.65;100.00;100262.53;4966448;28;20650;-77
2023/03/05 10:09:02;;;;;;;1999.90;999.90;;;;;;;2.59;100.00;100263.28;4963577;28;20406;-77
2023/03/05 10:11:52;;;;;;;1999.90;999.90;;;;;;;2.76;100.00;100261.00;4962183;28;20126;-76
2023/03/05 10:14:25;;;;;;;1999.90;999.90;;;;;;;2.90;100.00;100263.91;4965539;28;20097;-76
2023/03/05 10:17:06;;;;;;;1999.90;999.90;;;;;;;3.09;100.00;100249.50;4967801;28;20047;-76
2023/03/05 10:19:45;;;;;;;1999.90;999.90;;;;;;;3.41;100.00;100244.91;4962803;28;20079;-77
2023/03/05 10:22:22;;;;;;;1999.90;999.90;;;;;;;3.65;100.00;100227.94;4964011;28;20101;-78
2023/03/05 10:25:05;;;;;;;1999.90;999.90;;;;;;;3.72;100.00;100228.06;4968593;28;20046;-77
2023/03/05 10:27:33;;;;;;;1999.90;999.90;;;;;;;3.76;100.00;100228.97;4953385;28;20043;-77
2023/03/05 10:30:22;;;;;;;1999.90;999.90;;;;;;;3.44;100.00;100221.47;4969322;28;20053;-78
2023/03/05 10:33:05;;;;;;;1999.90;999.90;;;;;;;3.30;100.00;100222.94;4970198;28;20437;-77
2023/03/05 10:35:43;;;;;;;1999.90;999.90;;;;;;;3.26;100.00;100223.75;4951401;28;20129;-77
2023/03/05 10:38:21;;;;;;;1999.90;999.90;;;;;;;3.31;100.00;100218.63;4952149;28;20039;-77
2023/03/05 10:41:01;;;;;;;1999.90;999.90;;;;;;;3.30;100.00;100217.72;4966052;28;20121;-77
2023/03/05 10:43:40;;;;;;;1999.90;999.90;;;;;;;3.37;100.00;100217.00;4965041;28;20044;-78
2023/03/05 10:46:14;;;;;;;1999.90;999.90;;;;;;;3.49;100.00;100218.97;5012611;22;20038;-75
2023/03/05 10:48:44;;;;;;;1999.90;999.90;;;;;;;3.58;100.00;100213.88;5018736;28;20057;-75
2023/03/05 10:51:28;;;;;;;1999.90;999.90;;;;;;;3.63;100.00;100211.34;5014213;28;20030;-74
2023/03/05 10:53:57;;;;;;;1999.90;999.90;;;;;;;3.65;100.00;100214.88;5022002;28;20038;-75
2023/03/05 10:56:25;;;;;;;1999.90;999.90;;;;;;;3.72;100.00;100203.66;5017547;28;20069;-75
2023/03/05 10:58:53;;;;;;;1999.90;999.90;;;;;;;3.77;100.00;100199.41;5003230;28;20065;-75
2023/03/05 11:01:22;;;;;;;1999.90;999.90;;;;;;;3.71;100.00;100204.53;4999881;28;20034;-75
2023/03/05 11:03:55;;;;;;;1999.90;999.90;;;;;;;3.74;100.00;100194.13;5006317;28;20511;-75
2023/03/05 11:06:28;;;;;;;;;;;;;;;3.63;100.00;100206.13;5007109;28;20041;-75